sensor_id;sensor_type;location;lat;lon;timestamp;temperature;humidity
66608;DHT22;53462;39.616;8.824;2024-01-10T00:02:01;4.00;99.90
66608;DHT22;53462;39.616;8.824;2024-01-10T00:04:27;4.00;99.90
66608;DHT22;53462;39.616;8.824;2024-01-10T00:06:52;4.00;99.90
66608;DHT22;53462;39.616;8.824;2024-01-10T00:09:18;4.10;99.90
66608;DHT22;53462;39.616;8.824;2024-01-10T00:11:44;4.30;99.90
66608;DHT22;53462;39.616;8.824;2024-01-10T00:14:10;4.30;99.90
66608;DHT22;53462;39.616;8.824;2024-01-10T00:16:36;4.20;99.90
66608;DHT22;53462;39.616;8.824;2024-01-10T00:19:02;4.20;99.90
66608;DHT22;53462;39.616;8.824;2024-01-10T00:21:28;4.40;99.90
66608;DHT22;53462;39.616;8.824;2024-01-10T00:23:54;4.40;99.90
66608;DHT22;53462;39.616;8.824;2024-01-10T00:26:20;4.40;99.90
66608;DHT22;53462;39.616;8.824;2024-01-10T00:28:46;4.40;99.90
66608;DHT22;53462;39.616;8.824;2024-01-10T00:31:12;4.50;99.90
66608;DHT22;53462;39.616;8.824;2024-01-10T00:33:39;4.40;99.90
66608;DHT22;53462;39.616;8.824;2024-01-10T00:36:05;4.40;99.90
66608;DHT22;53462;39.616;8.824;2024-01-10T00:38:31;4.50;99.90
66608;DHT22;53462;39.616;8.824;2024-01-10T00:40:57;4.40;99.90
66608;DHT22;53462;39.616;8.824;2024-01-10T00:43:23;4.30;99.90
66608;DHT22;53462;39.616;8.824;2024-01-10T00:45:49;4.20;99.90
66608;DHT22;53462;39.616;8.824;2024-01-10T00:48:15;4.20;99.90
66608;DHT22;53462;39.616;8.824;2024-01-10T00:50:43;4.20;99.90
66608;DHT22;53462;39.616;8.824;2024-01-10T00:53:10;4.30;99.90
66608;DHT22;53462;39.616;8.824;2024-01-10T00:55:36;4.50;99.90
66608;DHT22;53462;39.616;8.824;2024-01-10T00:58:02;4.60;99.90
66608;DHT22;53462;39.616;8.824;2024-01-10T01:00:28;4.70;99.90
66608;DHT22;53462;39.616;8.824;2024-01-10T01:02:54;4.80;99.90
66608;DHT22;53462;39.616;8.824;2024-01-10T01:05:20;4.80;99.90
66608;DHT22;53462;39.616;8.824;2024-01-10T01:07:45;4.70;99.90
66608;DHT22;53462;39.616;8.824;2024-01-10T01:10:11;4.70;99.90
66608;DHT22;53462;39.616;8.824;2024-01-10T01:12:37;4.60;99.90
66608;DHT22;53462;39.616;8.824;2024-01-10T01:15:05;4.40;99.90
66608;DHT22;53462;39.616;8.824;2024-01-10T01:17:31;4.30;99.90
66608;DHT22;53462;39.616;8.824;2024-01-10T01:19:57;4.30;99.90
66608;DHT22;53462;39.616;8.824;2024-01-10T01:22:23;4.20;99.90
66608;DHT22;53462;39.616;8.824;2024-01-10T01:24:48;4.10;99.90
66608;DHT22;53462;39.616;8.824;2024-01-10T01:27:14;4.20;99.90
66608;DHT22;53462;39.616;8.824;2024-01-10T01:29:40;4.10;99.90
66608;DHT22;53462;39.616;8.824;2024-01-10T01:32:06;3.90;99.90
66608;DHT22;53462;39.616;8.824;2024-01-10T01:34:32;4.20;99.90
66608;DHT22;53462;39.616;8.824;2024-01-10T01:36:58;4.20;99.90
66608;DHT22;53462;39.616;8.824;2024-01-10T01:39:24;4.30;99.90
66608;DHT22;53462;39.616;8.824;2024-01-10T01:41:50;4.40;99.90
66608;DHT22;53462;39.616;8.824;2024-01-10T01:44:16;4.40;99.90
66608;DHT22;53462;39.616;8.824;2024-01-10T01:46:42;4.40;99.90
66608;DHT22;53462;39.616;8.824;2024-01-10T01:49:10;4.40;99.90
66608;DHT22;53462;39.616;8.824;2024-01-10T01:51:36;4.40;99.90
66608;DHT22;53462;39.616;8.824;2024-01-10T01:54:06;4.40;99.90
66608;DHT22;53462;39.616;8.824;2024-01-10T01:56:32;4.40;99.90
66608;DHT22;53462;39.616;8.824;2024-01-10T01:58:58;4.50;99.90
66608;DHT22;53462;39.616;8.824;2024-01-10T02:01:24;4.70;99.90
66608;DHT22;53462;39.616;8.824;2024-01-10T02:03:50;4.80;99.90
66608;DHT22;53462;39.616;8.824;2024-01-10T02:06:16;4.70;99.90
66608;DHT22;53462;39.616;8.824;2024-01-10T02:08:42;4.40;99.90
66608;DHT22;53462;39.616;8.824;2024-01-10T02:11:08;4.30;99.90
66608;DHT22;53462;39.616;8.824;2024-01-10T02:13:34;4.10;99.90
66608;DHT22;53462;39.616;8.824;2024-01-10T02:16:01;4.10;99.90
66608;DHT22;53462;39.616;8.824;2024-01-10T02:18:29;4.20;99.90
66608;DHT22;53462;39.616;8.824;2024-01-10T02:20:55;4.30;99.90
66608;DHT22;53462;39.616;8.824;2024-01-10T02:23:20;4.10;99.90
66608;DHT22;53462;39.616;8.824;2024-01-10T02:25:46;4.00;99.90
66608;DHT22;53462;39.616;8.824;2024-01-10T02:28:13;3.80;99.90
66608;DHT22;53462;39.616;8.824;2024-01-10T02:30:38;3.60;99.90
66608;DHT22;53462;39.616;8.824;2024-01-10T02:33:04;3.70;99.90
66608;DHT22;53462;39.616;8.824;2024-01-10T02:35:30;3.70;99.90
66608;DHT22;53462;39.616;8.824;2024-01-10T02:37:58;3.70;99.90
66608;DHT22;53462;39.616;8.824;2024-01-10T02:40:25;3.70;99.90
66608;DHT22;53462;39.616;8.824;2024-01-10T02:42:51;3.70;99.90
66608;DHT22;53462;39.616;8.824;2024-01-10T02:45:17;3.70;99.90
66608;DHT22;53462;39.616;8.824;2024-01-10T02:47:44;3.80;99.90
66608;DHT22;53462;39.616;8.824;2024-01-10T02:50:10;3.90;99.90
66608;DHT22;53462;39.616;8.824;2024-01-10T02:52:36;3.90;99.90
66608;DHT22;53462;39.616;8.824;2024-01-10T02:55:02;4.10;99.90
66608;DHT22;53462;39.616;8.824;2024-01-10T02:57:28;4.00;99.90
66608;DHT22;53462;39.616;8.824;2024-01-10T02:59:54;3.80;99.90
66608;DHT22;53462;39.616;8.824;2024-01-10T03:02:20;3.60;99.90
66608;DHT22;53462;39.616;8.824;2024-01-10T03:04:46;3.70;99.90
66608;DHT22;53462;39.616;8.824;2024-01-10T03:07:11;3.50;99.90
66608;DHT22;53462;39.616;8.824;2024-01-10T03:09:37;3.30;99.90
66608;DHT22;53462;39.616;8.824;2024-01-10T03:12:03;3.40;99.90
66608;DHT22;53462;39.616;8.824;2024-01-10T03:14:30;3.50;99.90
66608;DHT22;53462;39.616;8.824;2024-01-10T03:16:56;3.50;99.90
66608;DHT22;53462;39.616;8.824;2024-01-10T03:19:21;3.50;99.90
66608;DHT22;53462;39.616;8.824;2024-01-10T03:21:47;3.40;99.90
66608;DHT22;53462;39.616;8.824;2024-01-10T03:24:13;3.70;99.90
66608;DHT22;53462;39.616;8.824;2024-01-10T03:26:39;3.70;99.90
66608;DHT22;53462;39.616;8.824;2024-01-10T03:29:05;3.90;99.90
66608;DHT22;53462;39.616;8.824;2024-01-10T03:31:31;4.10;99.90
66608;DHT22;53462;39.616;8.824;2024-01-10T03:33:57;4.20;99.90
66608;DHT22;53462;39.616;8.824;2024-01-10T03:36:24;3.90;99.90
66608;DHT22;53462;39.616;8.824;2024-01-10T03:38:53;3.80;99.90
66608;DHT22;53462;39.616;8.824;2024-01-10T03:41:19;3.90;99.90
66608;DHT22;53462;39.616;8.824;2024-01-10T03:43:46;4.20;99.90
66608;DHT22;53462;39.616;8.824;2024-01-10T03:46:12;4.30;99.90
66608;DHT22;53462;39.616;8.824;2024-01-10T03:48:39;4.40;99.90
66608;DHT22;53462;39.616;8.824;2024-01-10T03:51:13;4.40;99.90
66608;DHT22;53462;39.616;8.824;2024-01-10T03:53:39;4.40;99.90
66608;DHT22;53462;39.616;8.824;2024-01-10T03:56:05;4.50;99.90
66608;DHT22;53462;39.616;8.824;2024-01-10T03:58:31;4.50;99.90
66608;DHT22;53462;39.616;8.824;2024-01-10T04:00:57;4.40;99.90
66608;DHT22;53462;39.616;8.824;2024-01-10T04:03:23;4.30;99.90
66608;DHT22;53462;39.616;8.824;2024-01-10T04:05:49;4.40;99.90
66608;DHT22;53462;39.616;8.824;2024-01-10T04:08:15;4.50;99.90
66608;DHT22;53462;39.616;8.824;2024-01-10T04:10:41;4.70;99.90
66608;DHT22;53462;39.616;8.824;2024-01-10T04:13:07;4.50;99.90
66608;DHT22;53462;39.616;8.824;2024-01-10T04:15:33;4.50;99.90
66608;DHT22;53462;39.616;8.824;2024-01-10T04:18:00;4.40;99.90
66608;DHT22;53462;39.616;8.824;2024-01-10T04:20:26;4.40;99.90
66608;DHT22;53462;39.616;8.824;2024-01-10T04:22:52;3.90;99.90
66608;DHT22;53462;39.616;8.824;2024-01-10T04:25:18;3.70;99.90
66608;DHT22;53462;39.616;8.824;2024-01-10T04:27:43;3.80;99.90
66608;DHT22;53462;39.616;8.824;2024-01-10T04:30:10;3.90;99.90
66608;DHT22;53462;39.616;8.824;2024-01-10T04:32:36;4.10;99.90
66608;DHT22;53462;39.616;8.824;2024-01-10T04:35:02;4.20;99.90
66608;DHT22;53462;39.616;8.824;2024-01-10T04:37:28;4.30;99.90
66608;DHT22;53462;39.616;8.824;2024-01-10T04:39:54;4.40;99.90
66608;DHT22;53462;39.616;8.824;2024-01-10T04:42:20;4.50;99.90
66608;DHT22;53462;39.616;8.824;2024-01-10T04:44:46;4.60;99.90
66608;DHT22;53462;39.616;8.824;2024-01-10T04:47:12;4.50;99.90
66608;DHT22;53462;39.616;8.824;2024-01-10T04:49:37;4.40;99.90
66608;DHT22;53462;39.616;8.824;2024-01-10T04:52:04;4.40;99.90
66608;DHT22;53462;39.616;8.824;2024-01-10T04:54:30;4.10;99.90
66608;DHT22;53462;39.616;8.824;2024-01-10T04:56:56;3.90;99.90
66608;DHT22;53462;39.616;8.824;2024-01-10T04:59:21;4.00;99.90
66608;DHT22;53462;39.616;8.824;2024-01-10T05:01:47;3.90;99.90
66608;DHT22;53462;39.616;8.824;2024-01-10T05:04:13;3.90;99.90
66608;DHT22;53462;39.616;8.824;2024-01-10T05:06:39;4.00;99.90
66608;DHT22;53462;39.616;8.824;2024-01-10T05:09:05;4.20;99.90
66608;DHT22;53462;39.616;8.824;2024-01-10T05:11:32;4.20;99.90
66608;DHT22;53462;39.616;8.824;2024-01-10T05:14:00;4.20;99.90
66608;DHT22;53462;39.616;8.824;2024-01-10T05:16:26;4.30;99.90
66608;DHT22;53462;39.616;8.824;2024-01-10T05:18:52;4.20;99.90
66608;DHT22;53462;39.616;8.824;2024-01-10T05:21:18;4.00;99.90
66608;DHT22;53462;39.616;8.824;2024-01-10T05:23:44;4.10;99.90
66608;DHT22;53462;39.616;8.824;2024-01-10T05:26:10;4.30;99.90
66608;DHT22;53462;39.616;8.824;2024-01-10T05:28:36;4.40;99.90
66608;DHT22;53462;39.616;8.824;2024-01-10T05:31:02;4.40;99.90
66608;DHT22;53462;39.616;8.824;2024-01-10T05:33:28;4.40;99.90
66608;DHT22;53462;39.616;8.824;2024-01-10T05:35:54;4.40;99.90
66608;DHT22;53462;39.616;8.824;2024-01-10T05:38:19;4.60;99.90
66608;DHT22;53462;39.616;8.824;2024-01-10T05:40:45;4.70;99.90
66608;DHT22;53462;39.616;8.824;2024-01-10T05:43:11;4.80;99.90
66608;DHT22;53462;39.616;8.824;2024-01-10T05:45:38;4.90;99.90
66608;DHT22;53462;39.616;8.824;2024-01-10T05:48:04;4.90;99.90
66608;DHT22;53462;39.616;8.824;2024-01-10T05:50:32;4.90;99.90
66608;DHT22;53462;39.616;8.824;2024-01-10T05:52:58;4.80;99.90
66608;DHT22;53462;39.616;8.824;2024-01-10T05:55:23;4.50;99.90
66608;DHT22;53462;39.616;8.824;2024-01-10T05:57:50;4.20;99.90
66608;DHT22;53462;39.616;8.824;2024-01-10T06:00:16;4.10;99.90
66608;DHT22;53462;39.616;8.824;2024-01-10T06:02:42;4.00;99.90
66608;DHT22;53462;39.616;8.824;2024-01-10T06:05:09;4.10;99.90
66608;DHT22;53462;39.616;8.824;2024-01-10T06:07:36;4.20;99.90
66608;DHT22;53462;39.616;8.824;2024-01-10T06:10:02;4.30;99.90
66608;DHT22;53462;39.616;8.824;2024-01-10T06:12:29;4.40;99.90
66608;DHT22;53462;39.616;8.824;2024-01-10T06:14:55;4.50;99.90
66608;DHT22;53462;39.616;8.824;2024-01-10T06:17:21;4.60;99.90
66608;DHT22;53462;39.616;8.824;2024-01-10T06:19:47;4.60;99.90
66608;DHT22;53462;39.616;8.824;2024-01-10T06:22:13;4.70;99.90
66608;DHT22;53462;39.616;8.824;2024-01-10T06:24:39;4.50;99.90
66608;DHT22;53462;39.616;8.824;2024-01-10T06:27:06;4.60;99.90
66608;DHT22;53462;39.616;8.824;2024-01-10T06:29:32;4.60;99.90
66608;DHT22;53462;39.616;8.824;2024-01-10T06:31:59;4.50;99.90
66608;DHT22;53462;39.616;8.824;2024-01-10T06:34:29;4.40;99.90
66608;DHT22;53462;39.616;8.824;2024-01-10T06:36:55;4.40;99.90
66608;DHT22;53462;39.616;8.824;2024-01-10T06:39:22;4.30;99.90
66608;DHT22;53462;39.616;8.824;2024-01-10T06:41:49;4.30;99.90
66608;DHT22;53462;39.616;8.824;2024-01-10T06:44:15;4.20;99.90
66608;DHT22;53462;39.616;8.824;2024-01-10T06:46:44;4.20;99.90
66608;DHT22;53462;39.616;8.824;2024-01-10T06:49:10;4.40;99.90
66608;DHT22;53462;39.616;8.824;2024-01-10T06:51:36;4.40;99.90
66608;DHT22;53462;39.616;8.824;2024-01-10T06:54:02;4.50;99.90
66608;DHT22;53462;39.616;8.824;2024-01-10T06:56:34;4.60;99.90
66608;DHT22;53462;39.616;8.824;2024-01-10T06:59:01;4.60;99.90
66608;DHT22;53462;39.616;8.824;2024-01-10T07:01:27;4.70;99.90
66608;DHT22;53462;39.616;8.824;2024-01-10T07:03:54;4.80;99.90
66608;DHT22;53462;39.616;8.824;2024-01-10T07:06:21;4.90;99.90
66608;DHT22;53462;39.616;8.824;2024-01-10T07:08:48;5.00;99.90
66608;DHT22;53462;39.616;8.824;2024-01-10T07:11:15;5.10;99.90
66608;DHT22;53462;39.616;8.824;2024-01-10T07:13:41;5.00;99.90
66608;DHT22;53462;39.616;8.824;2024-01-10T07:16:08;5.00;99.90
66608;DHT22;53462;39.616;8.824;2024-01-10T07:18:34;5.20;99.90
66608;DHT22;53462;39.616;8.824;2024-01-10T07:21:00;5.30;99.90
66608;DHT22;53462;39.616;8.824;2024-01-10T07:23:26;5.40;99.90
66608;DHT22;53462;39.616;8.824;2024-01-10T07:25:53;5.40;99.90
66608;DHT22;53462;39.616;8.824;2024-01-10T07:28:19;5.50;99.90
66608;DHT22;53462;39.616;8.824;2024-01-10T07:30:46;5.40;99.90
66608;DHT22;53462;39.616;8.824;2024-01-10T07:33:12;5.40;99.90
66608;DHT22;53462;39.616;8.824;2024-01-10T07:35:38;5.50;99.90
66608;DHT22;53462;39.616;8.824;2024-01-10T07:38:05;5.60;99.90
66608;DHT22;53462;39.616;8.824;2024-01-10T07:40:34;5.60;99.90
66608;DHT22;53462;39.616;8.824;2024-01-10T07:43:00;5.70;99.90
66608;DHT22;53462;39.616;8.824;2024-01-10T07:45:26;5.80;99.90
66608;DHT22;53462;39.616;8.824;2024-01-10T07:47:53;5.90;99.90
66608;DHT22;53462;39.616;8.824;2024-01-10T07:50:19;6.00;99.90
66608;DHT22;53462;39.616;8.824;2024-01-10T07:52:45;6.10;99.90
66608;DHT22;53462;39.616;8.824;2024-01-10T07:55:14;6.10;99.90
66608;DHT22;53462;39.616;8.824;2024-01-10T07:57:40;6.20;99.90
66608;DHT22;53462;39.616;8.824;2024-01-10T08:00:08;6.30;99.90
66608;DHT22;53462;39.616;8.824;2024-01-10T08:02:37;6.40;99.90
66608;DHT22;53462;39.616;8.824;2024-01-10T08:05:05;6.50;99.90
66608;DHT22;53462;39.616;8.824;2024-01-10T08:07:34;6.60;99.90
66608;DHT22;53462;39.616;8.824;2024-01-10T08:10:06;6.70;99.90
66608;DHT22;53462;39.616;8.824;2024-01-10T08:12:32;6.80;99.90
66608;DHT22;53462;39.616;8.824;2024-01-10T08:14:58;6.90;99.90
66608;DHT22;53462;39.616;8.824;2024-01-10T08:17:24;7.00;99.90
66608;DHT22;53462;39.616;8.824;2024-01-10T08:19:51;7.00;99.90
66608;DHT22;53462;39.616;8.824;2024-01-10T08:22:17;7.10;99.90
66608;DHT22;53462;39.616;8.824;2024-01-10T08:24:45;7.20;99.90
66608;DHT22;53462;39.616;8.824;2024-01-10T08:27:12;7.50;99.90
66608;DHT22;53462;39.616;8.824;2024-01-10T08:29:38;7.80;99.90
66608;DHT22;53462;39.616;8.824;2024-01-10T08:32:04;8.10;99.90
66608;DHT22;53462;39.616;8.824;2024-01-10T08:34:30;8.40;99.90
66608;DHT22;53462;39.616;8.824;2024-01-10T08:36:56;8.50;99.90
66608;DHT22;53462;39.616;8.824;2024-01-10T08:39:22;8.60;99.90
66608;DHT22;53462;39.616;8.824;2024-01-10T08:41:50;8.90;99.90
66608;DHT22;53462;39.616;8.824;2024-01-10T08:44:16;8.70;99.90
66608;DHT22;53462;39.616;8.824;2024-01-10T08:46:42;9.40;99.90
66608;DHT22;53462;39.616;8.824;2024-01-10T08:49:07;10.50;98.00
66608;DHT22;53462;39.616;8.824;2024-01-10T08:51:33;11.70;93.90
66608;DHT22;53462;39.616;8.824;2024-01-10T08:54:00;12.80;87.10
66608;DHT22;53462;39.616;8.824;2024-01-10T08:56:26;13.90;81.40
66608;DHT22;53462;39.616;8.824;2024-01-10T08:58:52;14.60;74.30
66608;DHT22;53462;39.616;8.824;2024-01-10T09:01:18;15.00;72.70
66608;DHT22;53462;39.616;8.824;2024-01-10T09:03:45;15.90;67.30
66608;DHT22;53462;39.616;8.824;2024-01-10T09:06:11;14.20;71.80
66608;DHT22;53462;39.616;8.824;2024-01-10T09:08:38;14.10;74.10
66608;DHT22;53462;39.616;8.824;2024-01-10T09:11:05;15.40;70.70
66608;DHT22;53462;39.616;8.824;2024-01-10T09:13:31;16.40;66.10
66608;DHT22;53462;39.616;8.824;2024-01-10T09:15:57;17.80;60.90
66608;DHT22;53462;39.616;8.824;2024-01-10T09:18:23;15.60;62.10
66608;DHT22;53462;39.616;8.824;2024-01-10T09:20:49;15.00;66.50
66608;DHT22;53462;39.616;8.824;2024-01-10T09:23:15;13.60;69.30
66608;DHT22;53462;39.616;8.824;2024-01-10T09:25:41;16.40;62.70
66608;DHT22;53462;39.616;8.824;2024-01-10T09:28:07;16.30;59.60
66608;DHT22;53462;39.616;8.824;2024-01-10T09:30:33;17.30;59.00
66608;DHT22;53462;39.616;8.824;2024-01-10T09:32:59;18.30;54.30
66608;DHT22;53462;39.616;8.824;2024-01-10T09:35:26;19.70;50.30
66608;DHT22;53462;39.616;8.824;2024-01-10T09:37:52;19.10;52.60
66608;DHT22;53462;39.616;8.824;2024-01-10T09:40:19;18.40;50.40
66608;DHT22;53462;39.616;8.824;2024-01-10T09:42:51;18.40;51.80
66608;DHT22;53462;39.616;8.824;2024-01-10T09:45:18;15.30;57.20
66608;DHT22;53462;39.616;8.824;2024-01-10T09:47:48;14.10;62.40
66608;DHT22;53462;39.616;8.824;2024-01-10T09:50:15;14.30;61.90
66608;DHT22;53462;39.616;8.824;2024-01-10T09:52:52;14.00;64.90
66608;DHT22;53462;39.616;8.824;2024-01-10T09:55:22;12.90;67.20
66608;DHT22;53462;39.616;8.824;2024-01-10T09:57:49;12.80;67.70
66608;DHT22;53462;39.616;8.824;2024-01-10T10:00:16;12.90;67.80
66608;DHT22;53462;39.616;8.824;2024-01-10T10:02:42;12.40;69.70
66608;DHT22;53462;39.616;8.824;2024-01-10T10:05:13;12.50;69.70
66608;DHT22;53462;39.616;8.824;2024-01-10T10:07:48;12.70;67.80
66608;DHT22;53462;39.616;8.824;2024-01-10T10:10:16;12.70;67.80
66608;DHT22;53462;39.616;8.824;2024-01-10T10:12:49;12.60;69.20
66608;DHT22;53462;39.616;8.824;2024-01-10T10:15:17;12.40;72.30
66608;DHT22;53462;39.616;8.824;2024-01-10T10:17:45;13.00;69.40
66608;DHT22;53462;39.616;8.824;2024-01-10T10:20:19;13.40;66.70
66608;DHT22;53462;39.616;8.824;2024-01-10T10:23:12;13.10;68.30
66608;DHT22;53462;39.616;8.824;2024-01-10T10:25:45;13.60;65.60
66608;DHT22;53462;39.616;8.824;2024-01-10T10:28:11;13.50;66.80
66608;DHT22;53462;39.616;8.824;2024-01-10T10:30:37;18.00;53.40
66608;DHT22;53462;39.616;8.824;2024-01-10T10:33:03;16.60;53.70
66608;DHT22;53462;39.616;8.824;2024-01-10T10:35:30;15.70;58.70
66608;DHT22;53462;39.616;8.824;2024-01-10T10:37:56;15.30;57.30
66608;DHT22;53462;39.616;8.824;2024-01-10T10:40:24;14.80;58.20
66608;DHT22;53462;39.616;8.824;2024-01-10T10:42:55;15.20;61.10
66608;DHT22;53462;39.616;8.824;2024-01-10T10:45:21;16.00;56.90
66608;DHT22;53462;39.616;8.824;2024-01-10T10:47:59;15.40;59.10
66608;DHT22;53462;39.616;8.824;2024-01-10T10:50:29;15.50;58.90
66608;DHT22;53462;39.616;8.824;2024-01-10T10:52:59;14.40;61.00
66608;DHT22;53462;39.616;8.824;2024-01-10T10:55:26;14.40;61.80
66608;DHT22;53462;39.616;8.824;2024-01-10T10:57:54;13.70;62.30
66608;DHT22;53462;39.616;8.824;2024-01-10T11:00:21;14.20;63.40
66608;DHT22;53462;39.616;8.824;2024-01-10T11:02:53;14.40;62.70
66608;DHT22;53462;39.616;8.824;2024-01-10T11:05:20;13.20;66.60
66608;DHT22;53462;39.616;8.824;2024-01-10T11:07:48;13.70;66.50
66608;DHT22;53462;39.616;8.824;2024-01-10T11:10:30;12.80;69.70
66608;DHT22;53462;39.616;8.824;2024-01-10T11:24:33;13.70;67.40
66608;DHT22;53462;39.616;8.824;2024-01-10T11:27:15;14.30;64.40
66608;DHT22;53462;39.616;8.824;2024-01-10T11:29:41;14.30;63.80
66608;DHT22;53462;39.616;8.824;2024-01-10T11:32:18;13.70;63.60
66608;DHT22;53462;39.616;8.824;2024-01-10T11:34:57;13.00;67.90
66608;DHT22;53462;39.616;8.824;2024-01-10T11:37:42;13.30;68.20
66608;DHT22;53462;39.616;8.824;2024-01-10T11:40:09;12.70;69.80
66608;DHT22;53462;39.616;8.824;2024-01-10T11:42:42;12.60;71.20
66608;DHT22;53462;39.616;8.824;2024-01-10T11:45:08;12.60;72.20
66608;DHT22;53462;39.616;8.824;2024-01-10T11:47:38;13.10;70.90
66608;DHT22;53462;39.616;8.824;2024-01-10T11:50:06;13.20;70.00
66608;DHT22;53462;39.616;8.824;2024-01-10T11:52:34;13.00;69.90
66608;DHT22;53462;39.616;8.824;2024-01-10T11:55:00;12.80;72.90
66608;DHT22;53462;39.616;8.824;2024-01-10T11:57:28;12.70;73.60
66608;DHT22;53462;39.616;8.824;2024-01-10T11:59:55;12.40;73.30
66608;DHT22;53462;39.616;8.824;2024-01-10T12:02:22;12.30;74.00
66608;DHT22;53462;39.616;8.824;2024-01-10T12:04:53;12.30;75.40
66608;DHT22;53462;39.616;8.824;2024-01-10T12:07:19;12.30;75.50
66608;DHT22;53462;39.616;8.824;2024-01-10T12:09:46;12.00;77.40
66608;DHT22;53462;39.616;8.824;2024-01-10T12:12:13;12.30;76.20
66608;DHT22;53462;39.616;8.824;2024-01-10T12:14:40;12.30;78.00
66608;DHT22;53462;39.616;8.824;2024-01-10T12:17:06;12.30;76.80
66608;DHT22;53462;39.616;8.824;2024-01-10T12:19:37;12.10;77.10
66608;DHT22;53462;39.616;8.824;2024-01-10T12:22:07;12.00;78.60
66608;DHT22;53462;39.616;8.824;2024-01-10T12:24:33;12.00;78.20
66608;DHT22;53462;39.616;8.824;2024-01-10T12:26:59;12.00;78.40
66608;DHT22;53462;39.616;8.824;2024-01-10T12:29:26;11.90;79.20
66608;DHT22;53462;39.616;8.824;2024-01-10T12:31:53;11.90;79.90
66608;DHT22;53462;39.616;8.824;2024-01-10T12:34:20;11.70;81.10
66608;DHT22;53462;39.616;8.824;2024-01-10T12:36:47;11.90;80.10
66608;DHT22;53462;39.616;8.824;2024-01-10T12:39:13;11.90;81.50
66608;DHT22;53462;39.616;8.824;2024-01-10T12:41:41;12.40;79.60
66608;DHT22;53462;39.616;8.824;2024-01-10T12:44:07;12.50;77.90
66608;DHT22;53462;39.616;8.824;2024-01-10T12:46:32;12.50;75.70
66608;DHT22;53462;39.616;8.824;2024-01-10T12:49:05;12.70;77.60
66608;DHT22;53462;39.616;8.824;2024-01-10T12:51:33;12.60;78.00
66608;DHT22;53462;39.616;8.824;2024-01-10T12:54:02;12.40;77.70
66608;DHT22;53462;39.616;8.824;2024-01-10T12:56:30;12.50;78.70
66608;DHT22;53462;39.616;8.824;2024-01-10T12:58:56;12.70;78.10
66608;DHT22;53462;39.616;8.824;2024-01-10T13:01:23;12.60;77.50
66608;DHT22;53462;39.616;8.824;2024-01-10T13:03:50;12.50;76.90
66608;DHT22;53462;39.616;8.824;2024-01-10T13:06:17;12.40;78.30
66608;DHT22;53462;39.616;8.824;2024-01-10T13:08:45;12.10;80.60
66608;DHT22;53462;39.616;8.824;2024-01-10T13:11:11;12.30;80.30
66608;DHT22;53462;39.616;8.824;2024-01-10T13:13:38;12.40;81.10
66608;DHT22;53462;39.616;8.824;2024-01-10T13:16:06;12.50;80.10
66608;DHT22;53462;39.616;8.824;2024-01-10T13:18:32;12.50;80.80
66608;DHT22;53462;39.616;8.824;2024-01-10T13:20:58;12.60;80.50
66608;DHT22;53462;39.616;8.824;2024-01-10T13:23:24;12.20;81.30
66608;DHT22;53462;39.616;8.824;2024-01-10T13:25:50;12.00;82.70
66608;DHT22;53462;39.616;8.824;2024-01-10T13:28:18;12.30;82.80
66608;DHT22;53462;39.616;8.824;2024-01-10T13:30:44;12.10;83.30
66608;DHT22;53462;39.616;8.824;2024-01-10T13:33:10;12.10;84.70
66608;DHT22;53462;39.616;8.824;2024-01-10T13:35:37;12.30;84.20
66608;DHT22;53462;39.616;8.824;2024-01-10T13:38:03;12.40;84.60
66608;DHT22;53462;39.616;8.824;2024-01-10T13:40:29;12.40;82.70
66608;DHT22;53462;39.616;8.824;2024-01-10T13:42:57;12.40;83.60
66608;DHT22;53462;39.616;8.824;2024-01-10T13:45:23;12.40;83.50
66608;DHT22;53462;39.616;8.824;2024-01-10T13:47:49;12.10;83.10
66608;DHT22;53462;39.616;8.824;2024-01-10T13:50:15;12.10;83.70
66608;DHT22;53462;39.616;8.824;2024-01-10T13:52:42;12.20;84.00
66608;DHT22;53462;39.616;8.824;2024-01-10T13:55:09;12.40;83.50
66608;DHT22;53462;39.616;8.824;2024-01-10T13:57:35;12.50;83.20
66608;DHT22;53462;39.616;8.824;2024-01-10T14:00:02;13.00;82.60
66608;DHT22;53462;39.616;8.824;2024-01-10T14:02:37;16.80;65.40
66608;DHT22;53462;39.616;8.824;2024-01-10T14:05:03;17.80;59.50
66608;DHT22;53462;39.616;8.824;2024-01-10T14:07:33;18.10;59.10
66608;DHT22;53462;39.616;8.824;2024-01-10T14:09:59;18.30;55.20
66608;DHT22;53462;39.616;8.824;2024-01-10T14:12:27;16.80;58.00
66608;DHT22;53462;39.616;8.824;2024-01-10T14:14:53;16.10;61.10
66608;DHT22;53462;39.616;8.824;2024-01-10T14:17:19;15.90;61.40
66608;DHT22;53462;39.616;8.824;2024-01-10T14:19:45;15.10;64.10
66608;DHT22;53462;39.616;8.824;2024-01-10T14:22:11;14.10;66.50
66608;DHT22;53462;39.616;8.824;2024-01-10T14:24:37;13.30;69.80
66608;DHT22;53462;39.616;8.824;2024-01-10T14:27:04;13.00;71.70
66608;DHT22;53462;39.616;8.824;2024-01-10T14:29:30;12.90;72.60
66608;DHT22;53462;39.616;8.824;2024-01-10T14:31:56;12.60;74.30
66608;DHT22;53462;39.616;8.824;2024-01-10T14:34:22;12.60;76.80
66608;DHT22;53462;39.616;8.824;2024-01-10T14:36:48;12.80;75.40
66608;DHT22;53462;39.616;8.824;2024-01-10T14:39:13;12.60;74.50
66608;DHT22;53462;39.616;8.824;2024-01-10T14:41:40;12.50;76.30
66608;DHT22;53462;39.616;8.824;2024-01-10T14:44:06;12.50;75.90
66608;DHT22;53462;39.616;8.824;2024-01-10T14:46:32;12.40;75.90
66608;DHT22;53462;39.616;8.824;2024-01-10T14:48:58;12.30;76.20
66608;DHT22;53462;39.616;8.824;2024-01-10T14:51:24;12.10;77.80
66608;DHT22;53462;39.616;8.824;2024-01-10T14:53:50;12.10;79.20
66608;DHT22;53462;39.616;8.824;2024-01-10T14:56:17;12.10;80.50
66608;DHT22;53462;39.616;8.824;2024-01-10T14:58:43;12.00;81.30
66608;DHT22;53462;39.616;8.824;2024-01-10T15:01:10;11.90;82.10
66608;DHT22;53462;39.616;8.824;2024-01-10T15:03:36;12.00;82.30
66608;DHT22;53462;39.616;8.824;2024-01-10T15:06:04;12.10;82.70
66608;DHT22;53462;39.616;8.824;2024-01-10T15:08:31;12.10;81.70
66608;DHT22;53462;39.616;8.824;2024-01-10T15:10:59;11.90;82.60
66608;DHT22;53462;39.616;8.824;2024-01-10T15:13:25;12.00;83.30
66608;DHT22;53462;39.616;8.824;2024-01-10T15:15:51;11.90;83.80
66608;DHT22;53462;39.616;8.824;2024-01-10T15:18:17;11.90;84.40
66608;DHT22;53462;39.616;8.824;2024-01-10T15:20:46;11.80;85.00
66608;DHT22;53462;39.616;8.824;2024-01-10T15:23:12;11.80;85.80
66608;DHT22;53462;39.616;8.824;2024-01-10T15:25:38;11.90;85.60
66608;DHT22;53462;39.616;8.824;2024-01-10T15:28:04;11.90;85.30
66608;DHT22;53462;39.616;8.824;2024-01-10T15:30:30;11.90;85.40
66608;DHT22;53462;39.616;8.824;2024-01-10T15:32:58;11.90;85.10
66608;DHT22;53462;39.616;8.824;2024-01-10T15:35:25;12.00;85.10
66608;DHT22;53462;39.616;8.824;2024-01-10T15:37:51;11.90;85.20
66608;DHT22;53462;39.616;8.824;2024-01-10T15:40:18;11.80;86.80
66608;DHT22;53462;39.616;8.824;2024-01-10T15:42:44;11.80;89.30
66608;DHT22;53462;39.616;8.824;2024-01-10T15:45:14;11.80;90.50
66608;DHT22;53462;39.616;8.824;2024-01-10T15:47:42;11.70;90.60
66608;DHT22;53462;39.616;8.824;2024-01-10T15:50:09;11.60;91.40